Time;durP1;ratioP1;P1;durP2;ratioP2;P2;SDS_P1;SDS_P2;PMS_P1;PMS_P2;Temp;Humidity;BMP_temperature;BMP_pressure;BME280_temperature;BME280_humidity;BME280_pressure;Samples;Min_cycle;Max_cycle;Signal;HPM_P1;HPM_P2
2023/09/27 00:00:00;;;;;;;23.67;21.50;;;14.60;99.90;;;;;;4939275;28;90117;-40
2023/09/27 00:02:26;;;;;;;21.35;19.17;;;14.50;99.90;;;;;;4939020;28;90110;-39
2023/09/27 00:04:52;;;;;;;22.50;20.17;;;14.60;99.90;;;;;;4939473;28;88452;-38
2023/09/27 00:07:17;;;;;;;30.23;23.35;;;14.50;99.90;;;;;;4939247;28;89827;-33
2023/09/27 00:09:43;;;;;;;22.95;20.60;;;14.50;99.90;;;;;;4939777;28;90326;-34
2023/09/27 00:12:09;;;;;;;24.88;22.20;;;14.50;99.90;;;;;;4938662;28;89648;-34
2023/09/27 00:14:34;;;;;;;34.45;24.05;;;14.50;99.90;;;;;;4939214;28;89633;-33
2023/09/27 00:17:00;;;;;;;25.85;22.77;;;14.50;99.90;;;;;;4938326;28;90155;-31
2023/09/27 00:19:26;;;;;;;26.42;23.02;;;14.50;99.90;;;;;;4939408;28;90228;-35
2023/09/27 00:21:52;;;;;;;26.27;23.50;;;14.50;99.90;;;;;;4938209;28;89502;-34
2023/09/27 00:24:18;;;;;;;26.85;24.13;;;14.40;99.90;;;;;;4939749;28;90044;-35
2023/09/27 00:26:44;;;;;;;26.95;24.10;;;14.40;99.90;;;;;;4938885;28;90155;-33
2023/09/27 00:29:10;;;;;;;25.42;23.00;;;14.40;99.90;;;;;;4938938;28;89644;-35
2023/09/27 00:31:35;;;;;;;28.80;25.67;;;14.40;99.90;;;;;;4938961;28;89261;-40
2023/09/27 00:34:01;;;;;;;28.95;26.08;;;14.40;99.90;;;;;;4938887;28;89360;-33
2023/09/27 00:36:27;;;;;;;28.08;25.15;;;14.40;99.90;;;;;;4938009;28;88157;-39
2023/09/27 00:38:52;;;;;;;30.13;26.33;;;14.40;99.90;;;;;;4940775;28;90348;-36
2023/09/27 00:41:18;;;;;;;29.50;26.38;;;14.40;99.90;;;;;;4941729;28;90579;-36
2023/09/27 00:43:43;;;;;;;31.48;28.05;;;14.40;99.90;;;;;;4941694;28;90540;-36
2023/09/27 00:46:12;;;;;;;30.60;27.13;;;14.40;99.90;;;;;;4942308;28;89076;-35
2023/09/27 00:48:38;;;;;;;26.90;24.15;;;14.40;99.90;;;;;;4942206;28;90276;-36
2023/09/27 00:51:04;;;;;;;33.35;28.65;;;14.40;99.90;;;;;;4942114;28;89946;-34
2023/09/27 00:53:33;;;;;;;28.50;25.70;;;14.40;99.90;;;;;;4942214;28;89987;-39
2023/09/27 00:55:58;;;;;;;31.15;27.65;;;14.40;99.90;;;;;;4941963;28;89423;-30
2023/09/27 00:58:25;;;;;;;30.25;27.02;;;14.40;99.90;;;;;;4942530;28;90757;-32
2023/09/27 01:00:52;;;;;;;29.38;26.25;;;14.40;99.90;;;;;;4941590;28;90256;-31
2023/09/27 01:03:18;;;;;;;30.80;27.58;;;14.40;99.90;;;;;;4942308;28;89867;-31
2023/09/27 01:05:45;;;;;;;32.80;29.30;;;14.30;99.90;;;;;;4941509;28;89880;-35
2023/09/27 01:08:11;;;;;;;31.38;28.17;;;14.30;99.90;;;;;;4942130;28;89985;-33
2023/09/27 01:10:37;;;;;;;31.35;28.00;;;14.30;99.90;;;;;;4942450;28;89845;-32
2023/09/27 01:13:03;;;;;;;31.55;28.38;;;14.30;99.90;;;;;;4941166;28;90084;-35
2023/09/27 01:15:29;;;;;;;31.50;27.98;;;14.30;99.90;;;;;;4940804;28;89474;-33
2023/09/27 01:17:59;;;;;;;33.95;30.50;;;14.30;99.90;;;;;;4941630;28;90432;-35
2023/09/27 01:20:27;;;;;;;32.83;29.42;;;14.30;99.90;;;;;;4942173;28;89937;-33
2023/09/27 01:23:03;;;;;;;32.85;29.52;;;14.30;99.90;;;;;;4939669;28;89235;-35
2023/09/27 01:25:31;;;;;;;34.15;30.85;;;14.30;99.90;;;;;;4942155;28;89082;-33
2023/09/27 01:27:58;;;;;;;33.92;30.40;;;14.30;99.90;;;;;;4942092;28;89600;-31
2023/09/27 01:30:25;;;;;;;36.28;32.45;;;14.20;99.90;;;;;;4941311;28;90628;-37
2023/09/27 01:32:50;;;;;;;33.42;30.02;;;14.20;99.90;;;;;;4941300;28;90126;-35
2023/09/27 01:35:16;;;;;;;36.38;30.52;;;14.20;99.90;;;;;;4941058;28;88454;-33
2023/09/27 01:37:42;;;;;;;36.53;31.80;;;14.20;99.90;;;;;;4941746;28;90443;-36
2023/09/27 01:40:09;;;;;;;35.47;32.03;;;14.20;99.90;;;;;;4941043;28;88922;-31
2023/09/27 01:42:42;;;;;;;34.60;31.13;;;14.20;99.90;;;;;;4941523;28;89455;-32
2023/09/27 01:45:15;;;;;;;36.08;32.05;;;14.10;99.90;;;;;;4941188;28;88277;-37
2023/09/27 01:47:40;;;;;;;37.90;34.00;;;14.10;99.90;;;;;;4940908;28;89980;-33
2023/09/27 01:50:07;;;;;;;39.22;32.45;;;14.10;99.90;;;;;;4940185;28;89808;-35
2023/09/27 01:52:33;;;;;;;35.50;31.63;;;14.10;99.90;;;;;;4941364;28;88749;-36
2023/09/27 01:54:59;;;;;;;35.30;31.70;;;14.10;99.90;;;;;;4940869;28;90233;-33
2023/09/27 01:57:24;;;;;;;34.38;30.83;;;14.10;99.90;;;;;;4941221;28;88939;-32
2023/09/27 01:59:50;;;;;;;36.42;32.08;;;14.10;99.90;;;;;;4941587;28;90772;-33
2023/09/27 02:02:16;;;;;;;35.00;31.27;;;14.10;99.90;;;;;;4939949;28;90064;-39
2023/09/27 02:04:41;;;;;;;38.08;34.22;;;14.10;99.90;;;;;;4942130;28;90184;-33
2023/09/27 02:07:07;;;;;;;40.25;34.55;;;14.10;99.90;;;;;;4940796;28;90240;-33
2023/09/27 02:09:33;;;;;;;33.95;29.70;;;14.10;99.90;;;;;;4941273;28;90289;-32
2023/09/27 02:11:58;;;;;;;36.17;32.45;;;14.10;99.90;;;;;;4940971;28;89668;-37
2023/09/27 02:14:24;;;;;;;34.72;31.00;;;14.10;99.90;;;;;;4941298;28;89205;-33
2023/09/27 02:16:50;;;;;;;37.88;31.95;;;14.10;99.90;;;;;;4941316;28;90346;-33
2023/09/27 02:19:15;;;;;;;34.97;31.23;;;14.10;99.90;;;;;;4939913;28;90581;-31
2023/09/27 02:21:41;;;;;;;34.58;30.88;;;14.00;99.90;;;;;;4941013;28;90530;-34
2023/09/27 02:24:08;;;;;;;35.65;31.88;;;14.00;99.90;;;;;;4940596;28;89617;-36
2023/09/27 02:26:34;;;;;;;35.90;31.47;;;14.00;99.90;;;;;;4940968;28;90194;-37
2023/09/27 02:29:00;;;;;;;36.38;32.53;;;14.00;99.90;;;;;;4940253;28;90402;-32
2023/09/27 02:31:25;;;;;;;38.45;32.50;;;13.90;99.90;;;;;;4940736;28;89343;-31
2023/09/27 02:33:51;;;;;;;39.42;32.28;;;14.00;99.90;;;;;;4940302;28;89736;-35
2023/09/27 02:36:17;;;;;;;33.03;29.60;;;14.00;99.90;;;;;;4941173;28;90631;-34
2023/09/27 02:38:43;;;;;;;37.97;34.10;;;14.00;99.90;;;;;;4940715;28;89211;-36
2023/09/27 02:41:08;;;;;;;34.00;30.63;;;14.00;99.90;;;;;;4940400;28;90315;-34
2023/09/27 02:43:34;;;;;;;36.08;32.33;;;14.00;99.90;;;;;;4939925;28;88106;-37
2023/09/27 02:46:00;;;;;;;36.55;31.10;;;13.90;99.90;;;;;;4940425;28;91747;-32
2023/09/27 02:48:26;;;;;;;39.40;32.25;;;13.90;99.90;;;;;;4940793;28;89729;-36
2023/09/27 02:50:57;;;;;;;37.08;31.83;;;13.90;99.90;;;;;;4940936;28;89493;-32
2023/09/27 02:53:23;;;;;;;35.88;32.08;;;14.00;99.90;;;;;;4940797;28;87779;-33
2023/09/27 02:55:49;;;;;;;36.65;32.92;;;13.90;99.90;;;;;;4940848;28;90111;-33
2023/09/27 02:58:15;;;;;;;40.80;33.92;;;13.90;99.90;;;;;;4940040;28;90256;-33
2023/09/27 03:00:41;;;;;;;35.72;31.92;;;13.90;99.90;;;;;;4940759;28;89248;-34
2023/09/27 03:03:13;;;;;;;40.72;35.20;;;13.80;99.90;;;;;;4939491;28;87502;-34
2023/09/27 03:05:39;;;;;;;37.10;32.30;;;13.80;99.90;;;;;;4939435;28;89578;-36
2023/09/27 03:08:05;;;;;;;38.95;34.65;;;13.80;99.90;;;;;;4938821;28;91336;-38
2023/09/27 03:10:31;;;;;;;37.30;33.40;;;13.80;99.90;;;;;;4940584;28;91058;-35
2023/09/27 03:12:58;;;;;;;40.35;33.33;;;13.80;99.90;;;;;;4940733;28;90010;-30
2023/09/27 03:15:24;;;;;;;42.28;37.08;;;13.80;99.90;;;;;;4940658;28;90051;-34
2023/09/27 03:17:50;;;;;;;38.58;34.58;;;13.80;99.90;;;;;;4939661;28;89770;-36
2023/09/27 03:20:16;;;;;;;38.70;34.80;;;13.80;99.90;;;;;;4939995;28;89703;-31
2023/09/27 03:22:48;;;;;;;42.67;36.45;;;13.80;99.90;;;;;;4938719;28;89064;-36
2023/09/27 03:25:16;;;;;;;40.03;35.72;;;13.80;99.90;;;;;;4938964;28;90398;-39
2023/09/27 03:27:42;;;;;;;;;;;13.70;99.90;;;;;;4940607;28;89227;-36
2023/09/27 03:30:08;;;;;;;34.13;30.63;;;13.70;99.90;;;;;;4941659;28;90245;-30
2023/09/27 03:32:33;;;;;;;39.47;35.20;;;13.70;99.90;;;;;;4939488;28;90236;-34
2023/09/27 03:35:00;;;;;;;39.33;33.75;;;13.70;99.90;;;;;;4938653;28;90537;-31
2023/09/27 03:37:25;;;;;;;38.70;34.63;;;13.70;99.90;;;;;;4939425;28;89256;-31
2023/09/27 03:39:55;;;;;;;37.83;33.65;;;13.60;99.90;;;;;;4939469;28;89799;-33
2023/09/27 03:42:22;;;;;;;41.65;35.55;;;13.60;99.90;;;;;;4939533;28;89434;-32
2023/09/27 03:44:48;;;;;;;38.63;34.55;;;13.60;99.90;;;;;;4939784;28;89801;-32
2023/09/27 03:47:15;;;;;;;38.03;34.05;;;13.60;99.90;;;;;;4938808;28;89396;-35
2023/09/27 03:49:41;;;;;;;40.42;35.60;;;13.60;99.90;;;;;;4940140;28;89358;-31
2023/09/27 03:52:08;;;;;;;41.20;36.80;;;13.60;99.90;;;;;;4939513;28;89817;-32
2023/09/27 03:54:33;;;;;;;48.70;37.95;;;13.60;99.90;;;;;;4939294;28;90287;-34
2023/09/27 03:56:59;;;;;;;46.08;38.15;;;13.60;99.90;;;;;;4938284;28;91951;-33
2023/09/27 03:59:25;;;;;;;43.90;39.15;;;13.60;99.90;;;;;;4939569;28;90430;-31
2023/09/27 04:01:51;;;;;;;40.28;35.97;;;13.70;99.90;;;;;;4939008;28;88762;-34
2023/09/27 04:04:17;;;;;;;50.90;40.53;;;13.60;99.90;;;;;;4939435;28;89172;-31
2023/09/27 04:06:43;;;;;;;44.22;39.65;;;13.60;99.90;;;;;;4937455;28;90041;-31
2023/09/27 04:09:09;;;;;;;41.65;37.03;;;13.70;99.90;;;;;;4939301;28;90084;-31
2023/09/27 04:11:36;;;;;;;43.20;38.80;;;13.70;99.90;;;;;;4949283;28;88941;-34
2023/09/27 04:14:02;;;;;;;42.85;38.47;;;13.70;99.90;;;;;;4961275;28;90375;-33
2023/09/27 04:16:30;;;;;;;41.80;37.33;;;13.70;99.90;;;;;;4961829;28;89773;-33
2023/09/27 04:18:59;;;;;;;43.78;39.17;;;13.70;99.90;;;;;;4962910;28;88444;-33
2023/09/27 04:21:25;;;;;;;;;;;13.70;99.90;;;;;;4962797;28;89859;-32
2023/09/27 04:23:59;;;;;;;39.50;35.47;;;13.70;99.90;;;;;;4963705;28;89819;-34
2023/09/27 04:26:25;;;;;;;41.42;36.97;;;13.70;99.90;;;;;;4962469;28;90275;-33
2023/09/27 04:28:52;;;;;;;45.92;40.20;;;13.70;99.90;;;;;;4962020;28;89673;-40
2023/09/27 04:31:18;;;;;;;50.80;40.13;;;13.70;99.90;;;;;;4962100;28;88276;-32
2023/09/27 04:33:44;;;;;;;42.88;38.25;;;13.70;99.90;;;;;;4961673;28;90550;-39
2023/09/27 04:36:17;;;;;;;50.30;42.53;;;13.70;99.90;;;;;;4962267;28;90009;-33
2023/09/27 04:38:44;;;;;;;45.42;40.13;;;13.70;99.90;;;;;;4962371;28;88952;-35
2023/09/27 04:41:12;;;;;;;44.60;39.90;;;13.80;99.90;;;;;;4962338;28;88815;-37
2023/09/27 04:43:37;;;;;;;47.95;42.72;;;13.80;99.90;;;;;;4960238;28;89647;-32
2023/09/27 04:46:03;;;;;;;43.53;39.00;;;13.80;99.90;;;;;;4942256;28;89721;-32
2023/09/27 04:48:29;;;;;;;52.30;42.13;;;13.80;99.90;;;;;;4941014;28;90838;-34
2023/09/27 04:50:57;;;;;;;46.83;41.42;;;13.80;99.90;;;;;;4942535;28;88681;-34
2023/09/27 04:53:23;;;;;;;46.25;41.28;;;13.80;99.90;;;;;;4942067;28;90206;-33
2023/09/27 04:55:49;;;;;;;52.00;41.33;;;13.80;99.90;;;;;;4942521;28;89496;-32
2023/09/27 04:58:15;;;;;;;44.05;39.58;;;13.80;99.90;;;;;;4941552;28;88888;-37
2023/09/27 05:00:40;;;;;;;46.78;41.45;;;13.80;99.90;;;;;;4942220;28;89739;-32
2023/09/27 05:03:07;;;;;;;46.28;40.78;;;13.80;99.90;;;;;;4941511;28;90310;-36
2023/09/27 05:05:32;;;;;;;46.80;41.63;;;13.80;99.90;;;;;;4942519;28;90072;-34
2023/09/27 05:07:58;;;;;;;51.17;39.70;;;13.80;99.90;;;;;;4941851;28;89485;-36
2023/09/27 05:10:24;;;;;;;47.13;40.10;;;13.70;99.90;;;;;;4941494;28;88891;-35
2023/09/27 05:12:50;;;;;;;48.22;41.20;;;13.70;99.90;;;;;;4950633;28;90358;-32
2023/09/27 05:15:16;;;;;;;49.42;43.00;;;13.70;99.90;;;;;;4961129;28;90064;-32
2023/09/27 05:17:41;;;;;;;48.40;42.28;;;13.70;99.90;;;;;;4961658;28;89531;-37
2023/09/27 05:20:10;;;;;;;53.53;44.55;;;13.70;99.90;;;;;;4961098;28;90003;-35
2023/09/27 05:22:37;;;;;;;50.20;44.45;;;13.60;99.90;;;;;;4960644;28;90439;-40
2023/09/27 05:25:04;;;;;;;47.97;42.78;;;13.70;99.90;;;;;;4960785;28;90313;-34
2023/09/27 05:27:29;;;;;;;50.15;44.88;;;13.70;99.90;;;;;;4957626;28;89638;-33
2023/09/27 05:29:55;;;;;;;52.33;44.97;;;13.70;99.90;;;;;;4961072;28;88249;-32
2023/09/27 05:32:23;;;;;;;47.20;40.67;;;13.70;99.90;;;;;;4960093;28;90745;-32
2023/09/27 05:34:50;;;;;;;48.65;42.90;;;13.70;99.90;;;;;;4961258;28;90221;-32
2023/09/27 05:37:16;;;;;;;47.50;42.60;;;13.70;99.90;;;;;;4993743;22;91219;-33
2023/09/27 05:39:42;;;;;;;51.28;43.28;;;13.60;99.90;;;;;;4960995;28;89619;-31
2023/09/27 05:42:07;;;;;;;48.90;43.72;;;13.60;99.90;;;;;;4960436;28;89917;-34
2023/09/27 05:44:33;;;;;;;50.17;44.05;;;13.60;99.90;;;;;;4960991;28;90428;-35
2023/09/27 05:46:59;;;;;;;52.28;44.35;;;13.70;99.90;;;;;;4960345;28;90062;-36
2023/09/27 05:49:25;;;;;;;50.50;44.13;;;13.70;99.90;;;;;;4946845;28;89174;-35
2023/09/27 05:51:55;;;;;;;48.50;43.15;;;13.70;99.90;;;;;;4938288;28;90788;-36
2023/09/27 05:54:21;;;;;;;45.53;39.72;;;13.70;99.90;;;;;;4938855;28;90456;-34
2023/09/27 05:56:51;;;;;;;48.97;43.88;;;13.70;99.90;;;;;;4938486;28;89959;-31
2023/09/27 05:59:17;;;;;;;49.35;41.70;;;13.80;99.90;;;;;;4939044;28;89226;-34
2023/09/27 06:01:43;;;;;;;53.08;43.53;;;13.80;99.90;;;;;;4937176;28;91247;-39
2023/09/27 06:04:10;;;;;;;52.25;46.63;;;13.80;99.90;;;;;;4937987;28;89439;-35
2023/09/27 06:06:39;;;;;;;49.60;44.40;;;13.90;99.90;;;;;;4938914;28;89709;-35
2023/09/27 06:09:05;;;;;;;46.30;41.05;;;13.90;99.90;;;;;;4939613;28;89736;-33
2023/09/27 06:11:35;;;;;;;50.75;42.03;;;13.90;99.90;;;;;;4941132;28;90224;-32
2023/09/27 06:14:00;;;;;;;48.97;43.42;;;14.00;99.90;;;;;;4937673;28;89691;-36
2023/09/27 06:16:26;;;;;;;48.60;43.35;;;14.00;99.90;;;;;;4941534;28;89916;-33
2023/09/27 06:18:53;;;;;;;45.40;40.55;;;14.00;99.90;;;;;;4951879;28;89194;-36
2023/09/27 06:21:19;;;;;;;52.47;44.58;;;14.10;99.90;;;;;;4959853;28;89095;-35
2023/09/27 06:23:44;;;;;;;48.08;42.97;;;14.10;99.90;;;;;;4958315;28;90185;-30
2023/09/27 06:26:10;;;;;;;44.60;39.88;;;14.10;99.90;;;;;;4960230;28;90955;-37
2023/09/27 06:28:38;;;;;;;46.55;41.70;;;14.20;99.90;;;;;;4960121;28;88229;-32
2023/09/27 06:31:07;;;;;;;;;;;14.20;99.90;;;;;;4960283;28;90381;-31
2023/09/27 06:33:38;;;;;;;45.80;41.08;;;14.20;99.90;;;;;;4961611;28;88690;-31
2023/09/27 06:36:05;;;;;;;48.55;41.90;;;14.30;99.90;;;;;;4959646;28;89652;-32
2023/09/27 06:38:31;;;;;;;49.20;43.90;;;14.30;99.90;;;;;;4959486;28;89639;-34
2023/09/27 06:40:57;;;;;;;46.30;40.72;;;14.30;99.90;;;;;;4960096;28;90232;-36
2023/09/27 06:43:24;;;;;;;49.35;43.08;;;14.40;99.90;;;;;;4959564;28;89651;-31
2023/09/27 06:45:49;;;;;;;45.60;40.67;;;14.40;99.90;;;;;;4960309;28;89793;-34
2023/09/27 06:48:18;;;;;;;44.08;39.58;;;14.50;99.90;;;;;;4958751;28;89258;-31
2023/09/27 06:50:43;;;;;;;50.85;42.17;;;14.50;99.90;;;;;;4959888;28;90261;-33
2023/09/27 06:53:09;;;;;;;48.38;42.53;;;14.50;99.90;;;;;;4959775;28;91922;-34
2023/09/27 06:55:36;;;;;;;44.83;40.22;;;14.50;99.90;;;;;;4960410;28;89902;-33
2023/09/27 06:58:01;;;;;;;43.47;39.03;;;14.50;99.90;;;;;;4959881;28;89670;-37
2023/09/27 07:00:27;;;;;;;44.47;39.28;;;14.60;99.90;;;;;;4959859;28;90620;-32
2023/09/27 07:02:53;;;;;;;45.65;40.78;;;14.60;99.90;;;;;;4958893;28;89875;-32
2023/09/27 07:05:22;;;;;;;43.13;38.33;;;14.60;99.90;;;;;;4959581;28;89718;-36
2023/09/27 07:07:49;;;;;;;45.97;39.78;;;14.60;99.90;;;;;;4959777;28;89776;-32
2023/09/27 07:10:15;;;;;;;43.58;39.42;;;14.60;99.90;;;;;;4957560;28;89915;-30
2023/09/27 07:12:41;;;;;;;46.08;41.20;;;14.60;99.90;;;;;;4959107;28;90760;-31
2023/09/27 07:15:10;;;;;;;44.88;38.30;;;14.60;99.90;;;;;;4958748;28;90512;-32
2023/09/27 07:17:38;;;;;;;46.35;41.55;;;14.70;99.90;;;;;;4957865;28;88568;-34
2023/09/27 07:22:56;;;;;;;43.92;39.20;;;15.00;99.90;;;;;;4959070;28;89442;-38
2023/09/27 07:25:23;;;;;;;43.47;38.88;;;15.10;99.90;;;;;;4959518;28;87716;-36
2023/09/27 07:27:50;;;;;;;53.22;43.20;;;15.20;99.90;;;;;;4959476;28;89381;-33
2023/09/27 07:30:18;;;;;;;45.58;40.63;;;15.20;99.90;;;;;;4958467;28;90158;-31
2023/09/27 07:32:44;;;;;;;;;;;15.30;99.90;;;;;;4974400;28;91011;-34
2023/09/27 07:35:14;;;;;;;43.65;39.10;;;15.40;99.90;;;;;;4961303;28;89065;-38
2023/09/27 07:37:43;;;;;;;46.78;41.33;;;15.50;99.90;;;;;;4959045;28;90256;-32
2023/09/27 07:40:11;;;;;;;42.53;37.97;;;15.60;99.90;;;;;;4959441;28;90036;-35
2023/09/27 07:42:38;;;;;;;44.72;39.75;;;15.60;99.90;;;;;;4959202;28;89539;-31
2023/09/27 07:45:05;;;;;;;46.42;40.80;;;15.70;99.90;;;;;;4959098;28;89559;-35
2023/09/27 07:47:33;;;;;;;44.87;40.20;;;15.70;99.90;;;;;;4958213;28;89419;-32
2023/09/27 07:49:59;;;;;;;45.88;40.78;;;15.70;99.90;;;;;;4958403;28;90328;-38
2023/09/27 07:52:25;;;;;;;43.67;38.92;;;15.80;99.90;;;;;;4959379;28;89771;-32
2023/09/27 07:54:51;;;;;;;45.33;40.05;;;15.80;99.90;;;;;;4959667;28;90074;-31
2023/09/27 07:57:17;;;;;;;50.70;43.08;;;15.80;99.90;;;;;;4958053;28;88372;-31
2023/09/27 07:59:43;;;;;;;42.80;38.45;;;15.80;99.90;;;;;;4958882;28;89450;-37
2023/09/27 08:02:09;;;;;;;44.03;39.50;;;15.80;99.90;;;;;;4958701;28;90707;-34
2023/09/27 08:04:39;;;;;;;48.10;40.72;;;15.80;99.90;;;;;;4958424;28;90578;-35
2023/09/27 08:07:05;;;;;;;42.13;37.55;;;15.80;99.90;;;;;;4958707;28;88721;-40
2023/09/27 08:09:31;;;;;;;45.17;40.15;;;15.80;99.90;;;;;;4958685;28;89908;-37
2023/09/27 08:11:57;;;;;;;46.08;41.00;;;15.90;99.90;;;;;;4958919;28;89541;-39
2023/09/27 08:14:23;;;;;;;48.33;40.28;;;15.90;99.90;;;;;;4958980;28;89611;-33
2023/09/27 08:16:50;;;;;;;44.78;39.92;;;15.90;99.90;;;;;;4939051;28;89071;-32
2023/09/27 08:19:16;;;;;;;45.08;40.20;;;16.00;99.90;;;;;;4937293;28;90240;-36
2023/09/27 08:21:42;;;;;;;42.08;37.72;;;16.00;99.90;;;;;;4937859;28;89229;-39
2023/09/27 08:24:07;;;;;;;43.17;38.72;;;16.10;99.90;;;;;;4935666;28;90055;-36
2023/09/27 08:26:34;;;;;;;46.75;40.50;;;16.20;99.90;;;;;;4936767;28;88900;-36
2023/09/27 08:29:01;;;;;;;42.60;38.15;;;16.30;99.90;;;;;;4936619;28;91724;-34
2023/09/27 08:31:26;;;;;;;49.55;40.65;;;16.40;99.90;;;;;;4935866;28;89941;-39
2023/09/27 08:33:52;;;;;;;43.47;38.78;;;16.50;99.90;;;;;;4937165;28;88562;-37
2023/09/27 08:36:18;;;;;;;44.83;38.83;;;16.60;99.90;;;;;;4937265;28;89300;-38
2023/09/27 08:38:44;;;;;;;43.42;38.33;;;16.70;99.90;;;;;;4935831;28;90224;-31
2023/09/27 08:41:12;;;;;;;40.85;36.58;;;16.80;99.90;;;;;;4937261;28;89451;-32
2023/09/27 08:43:38;;;;;;;41.95;37.38;;;16.90;99.90;;;;;;4937901;28;90181;-35
2023/09/27 08:46:04;;;;;;;51.83;36.70;;;17.10;99.90;;;;;;4936085;28;89073;-33
2023/09/27 08:48:30;;;;;;;40.45;36.38;;;17.20;99.90;;;;;;4937275;28;90285;-36
2023/09/27 08:50:59;;;;;;;40.70;36.60;;;17.30;99.90;;;;;;4935440;28;90695;-41
2023/09/27 08:53:25;;;;;;;40.33;36.08;;;17.40;99.90;;;;;;4936511;28;90141;-35
2023/09/27 08:55:51;;;;;;;37.83;34.13;;;17.50;99.90;;;;;;4936235;28;89553;-35
2023/09/27 08:58:18;;;;;;;36.92;32.95;;;17.60;99.90;;;;;;4936638;28;89377;-32
2023/09/27 09:00:44;;;;;;;39.92;33.50;;;17.70;99.90;;;;;;4938911;28;89789;-31
2023/09/27 09:03:10;;;;;;;37.85;33.85;;;17.90;99.90;;;;;;4953182;28;89176;-34
2023/09/27 09:05:37;;;;;;;38.78;33.17;;;18.00;99.90;;;;;;4959541;28;89596;-35
2023/09/27 09:08:07;;;;;;;38.10;32.45;;;18.20;99.90;;;;;;4957152;28;90981;-33
2023/09/27 09:10:33;;;;;;;37.40;32.55;;;18.30;99.90;;;;;;4958468;28;89856;-37
2023/09/27 09:13:03;;;;;;;38.22;33.88;;;18.50;99.90;;;;;;4958142;28;90017;-37
2023/09/27 09:15:39;;;;;;;36.47;30.70;;;18.60;99.90;;;;;;4956428;28;89011;-33
2023/09/27 09:18:10;;;;;;;32.33;28.83;;;18.60;99.90;;;;;;4956228;28;88478;-31
2023/09/27 09:20:51;;;;;;;29.67;26.67;;;18.60;99.90;;;;;;4944036;28;89904;-36
2023/09/27 09:23:33;;;;;;;35.42;29.30;;;18.70;99.90;;;;;;4954393;28;89170;-32
2023/09/27 09:26:00;;;;;;;36.88;28.73;;;18.80;99.90;;;;;;4959069;28;89560;-34
2023/09/27 09:28:26;;;;;;;37.60;29.85;;;18.90;99.90;;;;;;4958423;28;90163;-38
2023/09/27 09:30:52;;;;;;;27.63;24.67;;;19.00;99.90;;;;;;4957575;28;89269;-38
2023/09/27 09:33:24;;;;;;;30.20;26.75;;;19.20;99.90;;;;;;4957536;28;89219;-37
2023/09/27 09:35:52;;;;;;;30.90;27.63;;;19.20;99.90;;;;;;4959751;28;87835;-35
2023/09/27 09:38:30;;;;;;;29.88;26.70;;;19.20;99.90;;;;;;4957469;28;90780;-32
2023/09/27 09:41:00;;;;;;;29.85;26.05;;;19.10;99.90;;;;;;4957759;28;90166;-33
2023/09/27 09:43:34;;;;;;;29.33;26.33;;;19.20;99.90;;;;;;4957541;28;91780;-36
2023/09/27 09:46:06;;;;;;;30.10;26.50;;;19.20;99.90;;;;;;4958400;28;88900;-32
2023/09/27 09:48:36;;;;;;;30.10;26.45;;;19.20;99.90;;;;;;4958673;28;89267;-33
2023/09/27 09:51:05;;;;;;;27.67;24.15;;;19.30;99.90;;;;;;4957656;28;89835;-39
2023/09/27 09:53:41;;;;;;;28.02;25.10;;;19.30;99.90;;;;;;4957897;28;89432;-31
2023/09/27 09:56:10;;;;;;;29.02;25.70;;;19.30;99.90;;;;;;4959023;28;87966;-35
2023/09/27 09:58:47;;;;;;;36.90;27.65;;;19.40;99.90;;;;;;4958096;28;89591;-35
2023/09/27 10:01:21;;;;;;;29.30;25.17;;;19.40;99.90;;;;;;4957569;28;89916;-34
2023/09/27 10:03:50;;;;;;;27.70;24.77;;;19.40;99.90;;;;;;4958628;28;90164;-31
2023/09/27 10:06:20;;;;;;;27.25;24.30;;;19.40;99.90;;;;;;4957724;28;89708;-36
2023/09/27 10:08:47;;;;;;;30.23;25.38;;;19.40;99.90;;;;;;4956161;28;90410;-33
2023/09/27 10:11:14;;;;;;;31.03;28.20;;;19.40;99.90;;;;;;4956573;28;88686;-31
2023/09/27 10:13:41;;;;;;;33.92;26.05;;;19.50;99.90;;;;;;4957881;28;90502;-32
2023/09/27 10:16:08;;;;;;;29.48;26.35;;;19.60;99.90;;;;;;4957755;28;88216;-33
2023/09/27 10:18:41;;;;;;;27.77;24.77;;;19.70;99.90;;;;;;4958328;28;90025;-35
2023/09/27 10:21:09;;;;;;;28.58;25.20;;;19.80;99.90;;;;;;4956167;28;89303;-36
2023/09/27 10:23:47;;;;;;;29.83;26.85;;;19.90;99.90;;;;;;4957624;28;89905;-35
2023/09/27 10:26:28;;;;;;;27.42;24.55;;;20.00;99.90;;;;;;4957534;28;88091;-35
2023/09/27 10:29:03;;;;;;;27.92;22.90;;;20.10;99.90;;;;;;4957296;28;88693;-35
2023/09/27 10:31:33;;;;;;;27.10;24.33;;;20.10;99.90;;;;;;4956690;28;90501;-35
2023/09/27 10:33:58;;;;;;;27.45;24.50;;;20.10;99.90;;;;;;4958212;28;90149;-33
2023/09/27 10:36:24;;;;;;;28.08;25.17;;;20.10;99.90;;;;;;4956858;28;88951;-34
2023/09/27 10:38:49;;;;;;;28.00;24.15;;;20.10;99.90;;;;;;4957563;28;90309;-35
2023/09/27 10:41:42;;;;;;;27.50;24.65;;;20.10;99.90;;;;;;4957276;28;89366;-31
2023/09/27 10:44:08;;;;;;;31.90;27.98;;;20.20;99.90;;;;;;4956534;28;89612;-32
2023/09/27 10:47:01;;;;;;;36.22;27.27;;;20.20;99.90;;;;;;4957727;28;88058;-38
2023/09/27 10:49:30;;;;;;;31.88;28.17;;;20.30;99.90;;;;;;4957394;28;90301;-33
2023/09/27 10:51:56;;;;;;;29.55;26.13;;;20.30;99.90;;;;;;4956413;28;89617;-33
2023/09/27 10:54:26;;;;;;;27.38;24.45;;;20.30;99.90;;;;;;4956885;28;90044;-35
2023/09/27 10:56:53;;;;;;;35.05;30.67;;;20.40;99.90;;;;;;4938973;28;90159;-39
2023/09/27 10:59:36;;;;;;;28.33;25.35;;;20.50;99.90;;;;;;4956537;28;89739;-37
2023/09/27 11:02:03;;;;;;;28.00;25.00;;;20.60;99.90;;;;;;4956733;28;90126;-33
2023/09/27 11:04:30;;;;;;;31.92;25.05;;;20.60;99.90;;;;;;4957034;28;88538;-31
2023/09/27 11:06:56;;;;;;;28.27;24.38;;;20.60;99.90;;;;;;4956752;28;89660;-32
2023/09/27 11:09:23;;;;;;;28.85;23.98;;;20.70;99.90;;;;;;4956509;28;90607;-38
2023/09/27 11:11:54;;;;;;;26.00;22.50;;;20.70;99.90;;;;;;4957801;28;89706;-36
2023/09/27 11:14:31;;;;;;;24.38;21.75;;;20.80;99.90;;;;;;4956258;28;89474;-31
2023/09/27 11:17:16;;;;;;;29.25;26.23;;;20.90;99.90;;;;;;4956839;28;89282;-33
2023/09/27 11:19:42;;;;;;;24.58;22.15;;;21.10;99.90;;;;;;4957881;28;90978;-36
2023/09/27 11:22:08;;;;;;;24.38;21.65;;;21.10;99.90;;;;;;4955220;28;91084;-33
2023/09/27 11:24:40;;;;;;;28.08;23.25;;;21.20;99.90;;;;;;4956918;28;90410;-37
2023/09/27 11:27:08;;;;;;;26.42;23.63;;;21.20;99.90;;;;;;4956579;28;88466;-36
2023/09/27 11:29:35;;;;;;;24.95;22.15;;;21.20;99.90;;;;;;4956259;28;90137;-37
2023/09/27 11:32:01;;;;;;;24.27;21.67;;;21.20;99.90;;;;;;4956440;28;89687;-33
2023/09/27 11:34:26;;;;;;;22.30;19.52;;;21.10;99.90;;;;;;4956975;28;89018;-36
2023/09/27 11:36:54;;;;;;;21.58;18.20;;;21.20;99.90;;;;;;4955393;28;89122;-37
2023/09/27 11:39:29;;;;;;;19.58;17.73;;;21.20;99.90;;;;;;4957115;28;88398;-31
2023/09/27 11:41:59;;;;;;;19.83;17.80;;;21.20;99.90;;;;;;4956443;28;88868;-37
2023/09/27 11:44:26;;;;;;;21.20;17.58;;;21.20;99.90;;;;;;4956039;28;89213;-32
2023/09/27 11:47:12;;;;;;;21.92;19.58;;;21.20;99.90;;;;;;4956324;28;89050;-38
2023/09/27 11:49:38;;;;;;;20.23;18.10;;;21.20;99.90;;;;;;4954721;28;89942;-34
2023/09/27 11:52:10;;;;;;;26.17;23.00;;;21.20;99.90;;;;;;4956549;28;90164;-33
2023/09/27 11:54:41;;;;;;;24.63;21.70;;;21.30;99.90;;;;;;4955572;28;90121;-35
2023/09/27 11:57:08;;;;;;;21.80;19.55;;;21.30;99.90;;;;;;4955416;28;88379;-38
2023/09/27 11:59:34;;;;;;;22.50;20.27;;;21.30;99.90;;;;;;4956514;28;89889;-34
2023/09/27 12:01:59;;;;;;;22.48;20.17;;;21.40;99.90;;;;;;4955915;28;88855;-38
2023/09/27 12:04:25;;;;;;;21.77;19.50;;;21.40;99.90;;;;;;4955855;28;90556;-35
2023/09/27 12:06:51;;;;;;;20.48;18.27;;;21.40;99.90;;;;;;4956579;28;87689;-35
2023/09/27 12:09:17;;;;;;;20.85;18.70;;;21.40;99.90;;;;;;4956466;28;90475;-36
2023/09/27 12:11:42;;;;;;;19.35;17.40;;;21.30;99.90;;;;;;4955999;28;89280;-37
2023/09/27 12:14:08;;;;;;;21.45;19.17;;;21.30;99.90;;;;;;4955105;28;89939;-33
2023/09/27 12:16:34;;;;;;;20.80;18.25;;;21.30;99.90;;;;;;4956446;28;88431;-37
2023/09/27 12:19:00;;;;;;;19.48;17.45;;;21.30;99.90;;;;;;4955606;28;90293;-30
2023/09/27 12:21:26;;;;;;;23.08;18.67;;;21.30;99.90;;;;;;4955940;28;90355;-35
2023/09/27 12:23:51;;;;;;;19.15;16.60;;;21.40;99.90;;;;;;4955734;28;89064;-32
2023/09/27 12:26:17;;;;;;;18.00;16.20;;;21.30;99.90;;;;;;4956624;28;89226;-31
2023/09/27 12:28:42;;;;;;;19.88;17.17;;;21.30;99.90;;;;;;4955384;28;89937;-33
2023/09/27 12:31:08;;;;;;;18.48;16.17;;;21.30;99.90;;;;;;4956586;28;89655;-35